sensor_id;sensor_type;location;lat;lon;timestamp;temperature;humidity
20672;DHT22;10495;50.922;4.760;2022-08-19T00:00:19;20.10;77.70
20672;DHT22;10495;50.922;4.760;2022-08-19T00:02:44;20.10;77.70
20672;DHT22;10495;50.922;4.760;2022-08-19T00:05:12;20.00;77.70
20672;DHT22;10495;50.922;4.760;2022-08-19T00:07:38;20.00;77.80
20672;DHT22;10495;50.922;4.760;2022-08-19T00:10:08;20.00;78.00
20672;DHT22;10495;50.922;4.760;2022-08-19T00:12:34;20.00;78.00
20672;DHT22;10495;50.922;4.760;2022-08-19T00:15:01;19.90;78.20
20672;DHT22;10495;50.922;4.760;2022-08-19T00:17:27;19.90;78.50
20672;DHT22;10495;50.922;4.760;2022-08-19T00:19:53;19.80;78.50
20672;DHT22;10495;50.922;4.760;2022-08-19T00:22:18;19.80;78.80
20672;DHT22;10495;50.922;4.760;2022-08-19T00:24:44;19.70;79.10
20672;DHT22;10495;50.922;4.760;2022-08-19T00:27:11;19.70;79.30
20672;DHT22;10495;50.922;4.760;2022-08-19T00:29:37;19.60;79.20
20672;DHT22;10495;50.922;4.760;2022-08-19T00:32:03;19.60;79.30
20672;DHT22;10495;50.922;4.760;2022-08-19T00:34:29;19.60;79.30
20672;DHT22;10495;50.922;4.760;2022-08-19T00:36:56;19.60;79.90
20672;DHT22;10495;50.922;4.760;2022-08-19T00:39:22;19.60;80.20
20672;DHT22;10495;50.922;4.760;2022-08-19T00:41:48;19.70;80.60
20672;DHT22;10495;50.922;4.760;2022-08-19T00:44:23;19.60;80.50
20672;DHT22;10495;50.922;4.760;2022-08-19T00:46:51;19.70;80.80
20672;DHT22;10495;50.922;4.760;2022-08-19T00:49:31;19.70;80.70
20672;DHT22;10495;50.922;4.760;2022-08-19T00:52:08;19.80;80.70
20672;DHT22;10495;50.922;4.760;2022-08-19T00:54:36;19.80;80.80
20672;DHT22;10495;50.922;4.760;2022-08-19T00:57:04;19.80;81.10
20672;DHT22;10495;50.922;4.760;2022-08-19T00:59:32;19.80;81.00
20672;DHT22;10495;50.922;4.760;2022-08-19T01:02:01;19.90;81.00
20672;DHT22;10495;50.922;4.760;2022-08-19T01:04:26;19.90;80.80
20672;DHT22;10495;50.922;4.760;2022-08-19T01:06:52;20.00;80.90
20672;DHT22;10495;50.922;4.760;2022-08-19T01:09:17;20.00;81.20
20672;DHT22;10495;50.922;4.760;2022-08-19T01:11:44;19.90;81.10
20672;DHT22;10495;50.922;4.760;2022-08-19T01:14:10;20.00;81.30
20672;DHT22;10495;50.922;4.760;2022-08-19T01:16:37;20.00;81.30
20672;DHT22;10495;50.922;4.760;2022-08-19T01:19:14;20.00;81.20
20672;DHT22;10495;50.922;4.760;2022-08-19T01:21:46;20.10;81.20
20672;DHT22;10495;50.922;4.760;2022-08-19T01:24:15;20.10;81.10
20672;DHT22;10495;50.922;4.760;2022-08-19T01:26:44;20.10;81.10
20672;DHT22;10495;50.922;4.760;2022-08-19T01:29:10;20.10;81.40
20672;DHT22;10495;50.922;4.760;2022-08-19T01:31:36;20.10;81.30
20672;DHT22;10495;50.922;4.760;2022-08-19T01:34:05;20.10;81.30
20672;DHT22;10495;50.922;4.760;2022-08-19T01:36:38;20.00;81.20
20672;DHT22;10495;50.922;4.760;2022-08-19T01:39:07;20.00;81.20
20672;DHT22;10495;50.922;4.760;2022-08-19T01:41:34;19.90;81.50
20672;DHT22;10495;50.922;4.760;2022-08-19T01:44:00;20.00;81.60
20672;DHT22;10495;50.922;4.760;2022-08-19T01:46:29;19.90;81.40
20672;DHT22;10495;50.922;4.760;2022-08-19T01:48:55;19.90;81.10
20672;DHT22;10495;50.922;4.760;2022-08-19T01:51:21;19.90;81.00
20672;DHT22;10495;50.922;4.760;2022-08-19T01:53:50;19.90;80.90
20672;DHT22;10495;50.922;4.760;2022-08-19T01:56:17;19.90;80.80
20672;DHT22;10495;50.922;4.760;2022-08-19T01:59:10;19.90;80.60
20672;DHT22;10495;50.922;4.760;2022-08-19T02:01:34;19.90;80.60
20672;DHT22;10495;50.922;4.760;2022-08-19T02:04:00;19.90;80.50
20672;DHT22;10495;50.922;4.760;2022-08-19T02:06:28;19.90;80.40
20672;DHT22;10495;50.922;4.760;2022-08-19T02:08:54;19.80;80.30
20672;DHT22;10495;50.922;4.760;2022-08-19T02:11:26;19.80;80.40
20672;DHT22;10495;50.922;4.760;2022-08-19T02:13:53;19.80;80.40
20672;DHT22;10495;50.922;4.760;2022-08-19T02:16:20;19.70;80.30
20672;DHT22;10495;50.922;4.760;2022-08-19T02:18:46;19.70;80.20
20672;DHT22;10495;50.922;4.760;2022-08-19T02:21:17;19.70;80.10
20672;DHT22;10495;50.922;4.760;2022-08-19T02:23:44;19.70;80.20
20672;DHT22;10495;50.922;4.760;2022-08-19T02:26:10;19.60;80.10
20672;DHT22;10495;50.922;4.760;2022-08-19T02:28:36;19.60;80.20
20672;DHT22;10495;50.922;4.760;2022-08-19T02:31:03;19.60;80.30
20672;DHT22;10495;50.922;4.760;2022-08-19T02:33:29;19.60;80.30
20672;DHT22;10495;50.922;4.760;2022-08-19T02:35:54;19.50;80.30
20672;DHT22;10495;50.922;4.760;2022-08-19T02:38:20;19.50;80.30
20672;DHT22;10495;50.922;4.760;2022-08-19T02:40:55;19.50;80.30
20672;DHT22;10495;50.922;4.760;2022-08-19T02:43:22;19.50;80.30
20672;DHT22;10495;50.922;4.760;2022-08-19T02:45:48;19.40;80.30
20672;DHT22;10495;50.922;4.760;2022-08-19T02:48:18;19.40;80.40
20672;DHT22;10495;50.922;4.760;2022-08-19T02:50:45;19.30;80.40
20672;DHT22;10495;50.922;4.760;2022-08-19T02:53:12;19.20;80.50
20672;DHT22;10495;50.922;4.760;2022-08-19T02:55:45;19.20;80.60
20672;DHT22;10495;50.922;4.760;2022-08-19T02:58:12;19.10;80.60
20672;DHT22;10495;50.922;4.760;2022-08-19T03:00:46;19.10;80.70
20672;DHT22;10495;50.922;4.760;2022-08-19T03:03:12;19.00;80.60
20672;DHT22;10495;50.922;4.760;2022-08-19T03:05:38;19.00;80.70
20672;DHT22;10495;50.922;4.760;2022-08-19T03:08:04;19.00;80.70
20672;DHT22;10495;50.922;4.760;2022-08-19T03:10:31;19.00;80.70
20672;DHT22;10495;50.922;4.760;2022-08-19T03:12:57;19.00;81.20
20672;DHT22;10495;50.922;4.760;2022-08-19T03:15:22;18.90;80.50
20672;DHT22;10495;50.922;4.760;2022-08-19T03:17:48;18.90;80.50
20672;DHT22;10495;50.922;4.760;2022-08-19T03:20:14;18.90;80.60
20672;DHT22;10495;50.922;4.760;2022-08-19T03:22:39;18.90;80.70
20672;DHT22;10495;50.922;4.760;2022-08-19T03:25:05;18.90;80.80
20672;DHT22;10495;50.922;4.760;2022-08-19T03:27:30;18.80;80.70
20672;DHT22;10495;50.922;4.760;2022-08-19T03:29:56;18.80;80.60
20672;DHT22;10495;50.922;4.760;2022-08-19T03:32:22;18.70;80.60
20672;DHT22;10495;50.922;4.760;2022-08-19T03:34:48;18.60;80.90
20672;DHT22;10495;50.922;4.760;2022-08-19T03:37:14;18.60;81.00
20672;DHT22;10495;50.922;4.760;2022-08-19T03:39:41;18.50;81.10
20672;DHT22;10495;50.922;4.760;2022-08-19T03:42:08;18.50;81.20
20672;DHT22;10495;50.922;4.760;2022-08-19T03:44:33;18.50;81.30
20672;DHT22;10495;50.922;4.760;2022-08-19T03:47:01;18.50;81.50
20672;DHT22;10495;50.922;4.760;2022-08-19T03:49:29;18.50;81.30
20672;DHT22;10495;50.922;4.760;2022-08-19T03:51:57;18.40;81.30
20672;DHT22;10495;50.922;4.760;2022-08-19T03:54:24;18.40;81.30
20672;DHT22;10495;50.922;4.760;2022-08-19T03:56:52;18.40;81.50
20672;DHT22;10495;50.922;4.760;2022-08-19T03:59:25;18.40;81.30
20672;DHT22;10495;50.922;4.760;2022-08-19T04:01:53;18.40;81.30
20672;DHT22;10495;50.922;4.760;2022-08-19T04:04:19;18.40;81.30
20672;DHT22;10495;50.922;4.760;2022-08-19T04:06:44;18.30;81.30
20672;DHT22;10495;50.922;4.760;2022-08-19T04:09:12;18.30;81.10
20672;DHT22;10495;50.922;4.760;2022-08-19T04:11:40;18.30;81.20
20672;DHT22;10495;50.922;4.760;2022-08-19T04:14:07;18.30;81.20
20672;DHT22;10495;50.922;4.760;2022-08-19T04:16:33;18.30;81.10
20672;DHT22;10495;50.922;4.760;2022-08-19T04:19:00;18.30;81.30
20672;DHT22;10495;50.922;4.760;2022-08-19T04:21:27;18.20;81.20
20672;DHT22;10495;50.922;4.760;2022-08-19T04:23:53;18.20;81.20
20672;DHT22;10495;50.922;4.760;2022-08-19T04:26:25;18.20;81.20
20672;DHT22;10495;50.922;4.760;2022-08-19T04:28:51;18.20;81.30
20672;DHT22;10495;50.922;4.760;2022-08-19T04:31:20;18.10;81.20
20672;DHT22;10495;50.922;4.760;2022-08-19T04:33:46;18.10;81.30
20672;DHT22;10495;50.922;4.760;2022-08-19T04:36:20;18.10;81.40
20672;DHT22;10495;50.922;4.760;2022-08-19T04:38:52;18.10;81.40
20672;DHT22;10495;50.922;4.760;2022-08-19T04:41:18;18.00;81.40
20672;DHT22;10495;50.922;4.760;2022-08-19T04:44:02;18.00;81.50
20672;DHT22;10495;50.922;4.760;2022-08-19T04:46:28;18.10;81.60
20672;DHT22;10495;50.922;4.760;2022-08-19T04:48:57;18.00;81.50
20672;DHT22;10495;50.922;4.760;2022-08-19T04:51:23;18.00;81.70
20672;DHT22;10495;50.922;4.760;2022-08-19T04:53:49;17.90;81.60
20672;DHT22;10495;50.922;4.760;2022-08-19T04:56:16;17.90;81.60
20672;DHT22;10495;50.922;4.760;2022-08-19T04:58:44;17.90;81.60
20672;DHT22;10495;50.922;4.760;2022-08-19T05:01:13;18.00;82.10
20672;DHT22;10495;50.922;4.760;2022-08-19T05:03:39;18.10;82.50
20672;DHT22;10495;50.922;4.760;2022-08-19T05:06:06;18.10;83.10
20672;DHT22;10495;50.922;4.760;2022-08-19T05:08:34;18.10;83.20
20672;DHT22;10495;50.922;4.760;2022-08-19T05:11:00;18.20;83.60
20672;DHT22;10495;50.922;4.760;2022-08-19T05:13:26;18.30;83.60
20672;DHT22;10495;50.922;4.760;2022-08-19T05:15:58;18.40;83.80
20672;DHT22;10495;50.922;4.760;2022-08-19T05:18:25;18.40;83.80
20672;DHT22;10495;50.922;4.760;2022-08-19T05:21:11;18.40;84.30
20672;DHT22;10495;50.922;4.760;2022-08-19T05:23:56;18.40;84.90
20672;DHT22;10495;50.922;4.760;2022-08-19T05:26:23;18.60;84.40
20672;DHT22;10495;50.922;4.760;2022-08-19T05:28:51;18.70;84.30
20672;DHT22;10495;50.922;4.760;2022-08-19T05:31:17;18.80;84.20
20672;DHT22;10495;50.922;4.760;2022-08-19T05:33:43;18.80;84.20
20672;DHT22;10495;50.922;4.760;2022-08-19T05:36:08;19.00;84.10
20672;DHT22;10495;50.922;4.760;2022-08-19T05:38:34;19.00;84.10
20672;DHT22;10495;50.922;4.760;2022-08-19T05:41:11;19.00;84.20
20672;DHT22;10495;50.922;4.760;2022-08-19T05:43:37;19.10;83.70
20672;DHT22;10495;50.922;4.760;2022-08-19T05:46:04;19.20;84.30
20672;DHT22;10495;50.922;4.760;2022-08-19T05:48:32;19.30;83.50
20672;DHT22;10495;50.922;4.760;2022-08-19T05:50:58;19.30;83.30
20672;DHT22;10495;50.922;4.760;2022-08-19T05:53:25;19.50;83.30
20672;DHT22;10495;50.922;4.760;2022-08-19T05:55:51;19.60;82.80
20672;DHT22;10495;50.922;4.760;2022-08-19T05:58:16;19.70;82.70
20672;DHT22;10495;50.922;4.760;2022-08-19T06:00:43;19.80;82.80
20672;DHT22;10495;50.922;4.760;2022-08-19T06:03:09;20.00;82.80
20672;DHT22;10495;50.922;4.760;2022-08-19T06:05:35;20.20;82.50
20672;DHT22;10495;50.922;4.760;2022-08-19T06:08:01;20.30;82.00
20672;DHT22;10495;50.922;4.760;2022-08-19T06:10:27;20.50;81.70
20672;DHT22;10495;50.922;4.760;2022-08-19T06:12:54;20.70;81.40
20672;DHT22;10495;50.922;4.760;2022-08-19T06:15:21;20.90;80.50
20672;DHT22;10495;50.922;4.760;2022-08-19T06:17:50;20.90;79.90
20672;DHT22;10495;50.922;4.760;2022-08-19T06:20:16;21.00;79.40
20672;DHT22;10495;50.922;4.760;2022-08-19T06:22:45;21.10;79.40
20672;DHT22;10495;50.922;4.760;2022-08-19T06:25:12;21.20;79.10
20672;DHT22;10495;50.922;4.760;2022-08-19T06:27:38;21.30;78.70
20672;DHT22;10495;50.922;4.760;2022-08-19T06:30:04;21.40;78.30
20672;DHT22;10495;50.922;4.760;2022-08-19T06:32:31;21.40;78.30
20672;DHT22;10495;50.922;4.760;2022-08-19T06:34:57;21.60;76.80
20672;DHT22;10495;50.922;4.760;2022-08-19T06:37:22;21.90;76.10
20672;DHT22;10495;50.922;4.760;2022-08-19T06:39:48;22.00;76.50
20672;DHT22;10495;50.922;4.760;2022-08-19T06:42:14;22.10;77.20
20672;DHT22;10495;50.922;4.760;2022-08-19T06:44:43;22.50;75.90
20672;DHT22;10495;50.922;4.760;2022-08-19T06:47:12;22.80;75.60
20672;DHT22;10495;50.922;4.760;2022-08-19T06:49:38;23.00;73.10
20672;DHT22;10495;50.922;4.760;2022-08-19T06:52:04;23.30;73.00
20672;DHT22;10495;50.922;4.760;2022-08-19T06:54:30;23.70;70.90
20672;DHT22;10495;50.922;4.760;2022-08-19T06:57:00;23.90;70.80
20672;DHT22;10495;50.922;4.760;2022-08-19T06:59:30;24.10;70.20
20672;DHT22;10495;50.922;4.760;2022-08-19T07:02:00;24.30;70.30
20672;DHT22;10495;50.922;4.760;2022-08-19T07:04:30;24.40;69.00
20672;DHT22;10495;50.922;4.760;2022-08-19T07:07:03;24.70;69.10
20672;DHT22;10495;50.922;4.760;2022-08-19T07:09:31;24.80;67.50
20672;DHT22;10495;50.922;4.760;2022-08-19T07:11:57;24.80;67.80
20672;DHT22;10495;50.922;4.760;2022-08-19T07:14:25;25.00;67.00
20672;DHT22;10495;50.922;4.760;2022-08-19T07:16:53;25.20;67.20
20672;DHT22;10495;50.922;4.760;2022-08-19T07:19:21;25.40;67.00
20672;DHT22;10495;50.922;4.760;2022-08-19T07:21:48;25.70;65.70
20672;DHT22;10495;50.922;4.760;2022-08-19T07:24:17;25.80;65.80
20672;DHT22;10495;50.922;4.760;2022-08-19T07:26:43;26.10;66.10
20672;DHT22;10495;50.922;4.760;2022-08-19T07:29:10;26.40;63.40
20672;DHT22;10495;50.922;4.760;2022-08-19T07:31:37;26.60;62.90
20672;DHT22;10495;50.922;4.760;2022-08-19T07:34:05;26.30;61.10
20672;DHT22;10495;50.922;4.760;2022-08-19T07:36:36;26.70;61.50
20672;DHT22;10495;50.922;4.760;2022-08-19T07:39:06;27.00;62.00
20672;DHT22;10495;50.922;4.760;2022-08-19T07:41:32;27.20;61.00
20672;DHT22;10495;50.922;4.760;2022-08-19T07:43:59;27.50;61.60
20672;DHT22;10495;50.922;4.760;2022-08-19T07:46:30;28.00;60.30
20672;DHT22;10495;50.922;4.760;2022-08-19T07:48:56;28.30;59.30
20672;DHT22;10495;50.922;4.760;2022-08-19T07:51:22;28.60;59.20
20672;DHT22;10495;50.922;4.760;2022-08-19T07:53:48;28.70;58.70
20672;DHT22;10495;50.922;4.760;2022-08-19T07:56:17;28.80;58.90
20672;DHT22;10495;50.922;4.760;2022-08-19T07:58:44;29.00;57.90
20672;DHT22;10495;50.922;4.760;2022-08-19T08:01:13;28.80;57.60
20672;DHT22;10495;50.922;4.760;2022-08-19T08:03:39;29.10;57.50
20672;DHT22;10495;50.922;4.760;2022-08-19T08:06:23;29.30;57.40
20672;DHT22;10495;50.922;4.760;2022-08-19T08:09:08;29.50;57.60
20672;DHT22;10495;50.922;4.760;2022-08-19T08:11:42;29.60;57.10
20672;DHT22;10495;50.922;4.760;2022-08-19T08:14:17;29.70;56.70
20672;DHT22;10495;50.922;4.760;2022-08-19T08:16:43;29.90;56.00
20672;DHT22;10495;50.922;4.760;2022-08-19T08:19:11;30.00;56.40
20672;DHT22;10495;50.922;4.760;2022-08-19T08:21:37;30.00;55.80
20672;DHT22;10495;50.922;4.760;2022-08-19T08:24:02;29.70;56.20
20672;DHT22;10495;50.922;4.760;2022-08-19T08:26:28;29.60;56.20
20672;DHT22;10495;50.922;4.760;2022-08-19T08:28:54;29.30;56.80
20672;DHT22;10495;50.922;4.760;2022-08-19T08:31:20;29.40;56.30
20672;DHT22;10495;50.922;4.760;2022-08-19T08:33:46;29.20;56.30
20672;DHT22;10495;50.922;4.760;2022-08-19T08:36:13;28.80;56.50
20672;DHT22;10495;50.922;4.760;2022-08-19T08:38:40;28.50;56.90
20672;DHT22;10495;50.922;4.760;2022-08-19T08:43:40;27.80;57.30
20672;DHT22;10495;50.922;4.760;2022-08-19T08:46:13;28.00;57.70
20672;DHT22;10495;50.922;4.760;2022-08-19T08:49:37;28.20;58.10
20672;DHT22;10495;50.922;4.760;2022-08-19T08:51:47;28.80;57.00
20672;DHT22;10495;50.922;4.760;2022-08-19T08:54:17;28.90;57.30
20672;DHT22;10495;50.922;4.760;2022-08-19T08:56:44;29.20;56.90
20672;DHT22;10495;50.922;4.760;2022-08-19T08:59:25;29.20;56.40
20672;DHT22;10495;50.922;4.760;2022-08-19T09:01:51;29.10;56.40
20672;DHT22;10495;50.922;4.760;2022-08-19T09:04:17;28.90;56.80
20672;DHT22;10495;50.922;4.760;2022-08-19T09:07:09;28.70;56.90
20672;DHT22;10495;50.922;4.760;2022-08-19T09:09:42;28.60;56.70
20672;DHT22;10495;50.922;4.760;2022-08-19T09:12:15;28.70;57.50
20672;DHT22;10495;50.922;4.760;2022-08-19T09:14:49;28.80;57.40
20672;DHT22;10495;50.922;4.760;2022-08-19T09:17:19;29.30;57.50
20672;DHT22;10495;50.922;4.760;2022-08-19T09:19:57;29.40;56.90
20672;DHT22;10495;50.922;4.760;2022-08-19T09:22:23;29.30;56.20
20672;DHT22;10495;50.922;4.760;2022-08-19T09:24:50;29.00;56.30
20672;DHT22;10495;50.922;4.760;2022-08-19T09:27:21;28.70;56.60
20672;DHT22;10495;50.922;4.760;2022-08-19T09:29:49;28.70;56.40
20672;DHT22;10495;50.922;4.760;2022-08-19T09:32:15;28.30;56.70
20672;DHT22;10495;50.922;4.760;2022-08-19T09:34:42;27.90;57.40
20672;DHT22;10495;50.922;4.760;2022-08-19T09:37:08;27.70;58.00
20672;DHT22;10495;50.922;4.760;2022-08-19T09:39:34;27.60;57.80
20672;DHT22;10495;50.922;4.760;2022-08-19T09:42:00;27.30;58.40
20672;DHT22;10495;50.922;4.760;2022-08-19T09:44:25;27.00;58.50
20672;DHT22;10495;50.922;4.760;2022-08-19T09:46:51;27.00;58.80
20672;DHT22;10495;50.922;4.760;2022-08-19T09:49:18;26.80;59.10
20672;DHT22;10495;50.922;4.760;2022-08-19T09:51:44;26.80;59.20
20672;DHT22;10495;50.922;4.760;2022-08-19T09:54:11;26.60;59.40
20672;DHT22;10495;50.922;4.760;2022-08-19T09:56:36;26.70;59.50
20672;DHT22;10495;50.922;4.760;2022-08-19T09:59:03;26.80;59.30
20672;DHT22;10495;50.922;4.760;2022-08-19T10:01:30;26.80;59.70
20672;DHT22;10495;50.922;4.760;2022-08-19T10:03:58;26.90;59.70
20672;DHT22;10495;50.922;4.760;2022-08-19T10:06:25;26.80;59.40
20672;DHT22;10495;50.922;4.760;2022-08-19T10:08:54;27.00;59.40
20672;DHT22;10495;50.922;4.760;2022-08-19T10:11:20;27.00;59.10
20672;DHT22;10495;50.922;4.760;2022-08-19T10:13:46;27.20;59.00
20672;DHT22;10495;50.922;4.760;2022-08-19T10:16:16;27.20;59.40
20672;DHT22;10495;50.922;4.760;2022-08-19T10:18:43;27.00;59.30
20672;DHT22;10495;50.922;4.760;2022-08-19T10:21:21;26.90;59.60
20672;DHT22;10495;50.922;4.760;2022-08-19T10:23:49;27.00;59.50
20672;DHT22;10495;50.922;4.760;2022-08-19T10:26:19;26.90;59.60
20672;DHT22;10495;50.922;4.760;2022-08-19T10:28:45;27.00;59.60
20672;DHT22;10495;50.922;4.760;2022-08-19T10:31:17;27.00;59.80
20672;DHT22;10495;50.922;4.760;2022-08-19T10:33:45;27.00;59.60
20672;DHT22;10495;50.922;4.760;2022-08-19T10:36:15;27.10;59.50
20672;DHT22;10495;50.922;4.760;2022-08-19T10:38:43;27.20;59.10
20672;DHT22;10495;50.922;4.760;2022-08-19T10:41:21;27.20;59.30
20672;DHT22;10495;50.922;4.760;2022-08-19T10:43:50;27.20;59.70
20672;DHT22;10495;50.922;4.760;2022-08-19T10:46:18;27.30;59.70
20672;DHT22;10495;50.922;4.760;2022-08-19T10:48:44;27.20;59.40
20672;DHT22;10495;50.922;4.760;2022-08-19T10:51:11;27.10;59.60
20672;DHT22;10495;50.922;4.760;2022-08-19T10:53:56;26.90;59.80
20672;DHT22;10495;50.922;4.760;2022-08-19T10:56:23;27.20;59.90
20672;DHT22;10495;50.922;4.760;2022-08-19T10:59:07;27.30;59.50
20672;DHT22;10495;50.922;4.760;2022-08-19T11:01:34;27.20;59.20
20672;DHT22;10495;50.922;4.760;2022-08-19T11:04:01;27.40;59.40
20672;DHT22;10495;50.922;4.760;2022-08-19T11:06:29;27.50;59.10
20672;DHT22;10495;50.922;4.760;2022-08-19T11:08:56;27.50;59.30
20672;DHT22;10495;50.922;4.760;2022-08-19T11:11:22;27.60;59.10
20672;DHT22;10495;50.922;4.760;2022-08-19T11:13:48;27.50;59.00
20672;DHT22;10495;50.922;4.760;2022-08-19T11:16:18;27.40;59.20
20672;DHT22;10495;50.922;4.760;2022-08-19T11:18:46;27.40;59.30
20672;DHT22;10495;50.922;4.760;2022-08-19T11:23:39;27.60;58.70
20672;DHT22;10495;50.922;4.760;2022-08-19T11:26:05;27.80;58.40
20672;DHT22;10495;50.922;4.760;2022-08-19T11:28:30;27.90;58.40
20672;DHT22;10495;50.922;4.760;2022-08-19T11:30:56;27.70;58.40
20672;DHT22;10495;50.922;4.760;2022-08-19T11:33:22;27.70;58.40
20672;DHT22;10495;50.922;4.760;2022-08-19T11:35:47;27.70;58.40
20672;DHT22;10495;50.922;4.760;2022-08-19T11:38:14;27.80;58.40
20672;DHT22;10495;50.922;4.760;2022-08-19T11:40:40;27.90;57.90
20672;DHT22;10495;50.922;4.760;2022-08-19T11:43:07;27.90;58.30
20672;DHT22;10495;50.922;4.760;2022-08-19T11:45:35;28.00;58.30
20672;DHT22;10495;50.922;4.760;2022-08-19T11:48:02;28.00;58.30
20672;DHT22;10495;50.922;4.760;2022-08-19T11:50:27;28.00;58.30
20672;DHT22;10495;50.922;4.760;2022-08-19T11:52:55;27.90;58.10
20672;DHT22;10495;50.922;4.760;2022-08-19T11:55:21;27.80;58.10
20672;DHT22;10495;50.922;4.760;2022-08-19T11:57:48;27.70;58.40
20672;DHT22;10495;50.922;4.760;2022-08-19T12:00:14;27.40;59.00
20672;DHT22;10495;50.922;4.760;2022-08-19T12:02:40;27.50;58.50
20672;DHT22;10495;50.922;4.760;2022-08-19T12:05:06;27.50;58.70
20672;DHT22;10495;50.922;4.760;2022-08-19T12:07:33;27.30;58.80
20672;DHT22;10495;50.922;4.760;2022-08-19T12:10:00;27.10;59.00
20672;DHT22;10495;50.922;4.760;2022-08-19T12:12:27;26.90;59.20
20672;DHT22;10495;50.922;4.760;2022-08-19T12:14:53;26.80;59.30
20672;DHT22;10495;50.922;4.760;2022-08-19T12:17:26;26.80;59.30
20672;DHT22;10495;50.922;4.760;2022-08-19T12:19:52;26.80;59.50
20672;DHT22;10495;50.922;4.760;2022-08-19T12:22:18;26.80;59.40
20672;DHT22;10495;50.922;4.760;2022-08-19T12:24:45;26.70;59.80
20672;DHT22;10495;50.922;4.760;2022-08-19T12:27:11;26.70;60.00
20672;DHT22;10495;50.922;4.760;2022-08-19T12:29:37;26.70;60.60
20672;DHT22;10495;50.922;4.760;2022-08-19T12:32:02;26.80;60.40
20672;DHT22;10495;50.922;4.760;2022-08-19T12:34:29;26.60;61.00
20672;DHT22;10495;50.922;4.760;2022-08-19T12:36:57;26.70;61.60
20672;DHT22;10495;50.922;4.760;2022-08-19T12:39:23;26.50;62.10
20672;DHT22;10495;50.922;4.760;2022-08-19T12:41:49;26.70;61.80
20672;DHT22;10495;50.922;4.760;2022-08-19T12:44:15;26.90;61.60
20672;DHT22;10495;50.922;4.760;2022-08-19T12:46:42;26.90;60.50
20672;DHT22;10495;50.922;4.760;2022-08-19T12:49:07;27.00;60.40
20672;DHT22;10495;50.922;4.760;2022-08-19T12:51:33;26.80;61.00
20672;DHT22;10495;50.922;4.760;2022-08-19T12:53:58;26.80;61.80
20672;DHT22;10495;50.922;4.760;2022-08-19T12:56:24;27.30;61.10
20672;DHT22;10495;50.922;4.760;2022-08-19T12:58:50;27.40;61.60
20672;DHT22;10495;50.922;4.760;2022-08-19T13:01:17;27.70;60.00
20672;DHT22;10495;50.922;4.760;2022-08-19T13:03:45;27.70;59.90
20672;DHT22;10495;50.922;4.760;2022-08-19T13:06:11;27.80;59.80
20672;DHT22;10495;50.922;4.760;2022-08-19T13:08:37;27.90;59.40
20672;DHT22;10495;50.922;4.760;2022-08-19T13:11:18;28.00;59.50
20672;DHT22;10495;50.922;4.760;2022-08-19T13:13:47;28.20;59.20
20672;DHT22;10495;50.922;4.760;2022-08-19T13:16:13;28.20;58.80
20672;DHT22;10495;50.922;4.760;2022-08-19T13:18:41;27.90;59.10
20672;DHT22;10495;50.922;4.760;2022-08-19T13:21:09;27.90;59.50
20672;DHT22;10495;50.922;4.760;2022-08-19T13:23:35;28.10;59.40
20672;DHT22;10495;50.922;4.760;2022-08-19T13:26:04;28.30;58.50
20672;DHT22;10495;50.922;4.760;2022-08-19T13:28:30;28.20;58.00
20672;DHT22;10495;50.922;4.760;2022-08-19T13:31:18;28.20;58.50
20672;DHT22;10495;50.922;4.760;2022-08-19T13:34:03;28.30;58.70
20672;DHT22;10495;50.922;4.760;2022-08-19T13:36:31;28.40;58.20
20672;DHT22;10495;50.922;4.760;2022-08-19T13:38:57;28.30;57.70
20672;DHT22;10495;50.922;4.760;2022-08-19T13:41:23;28.50;57.50
20672;DHT22;10495;50.922;4.760;2022-08-19T13:43:48;28.40;58.10
20672;DHT22;10495;50.922;4.760;2022-08-19T13:46:14;28.40;58.20
20672;DHT22;10495;50.922;4.760;2022-08-19T13:48:40;28.30;58.40
20672;DHT22;10495;50.922;4.760;2022-08-19T13:51:06;28.10;58.50
20672;DHT22;10495;50.922;4.760;2022-08-19T13:53:36;28.10;58.50
20672;DHT22;10495;50.922;4.760;2022-08-19T13:56:05;28.00;58.60
20672;DHT22;10495;50.922;4.760;2022-08-19T13:58:31;28.00;58.60
20672;DHT22;10495;50.922;4.760;2022-08-19T14:00:57;28.20;58.90
20672;DHT22;10495;50.922;4.760;2022-08-19T14:03:24;28.20;58.80
20672;DHT22;10495;50.922;4.760;2022-08-19T14:05:50;28.40;58.80
20672;DHT22;10495;50.922;4.760;2022-08-19T14:08:16;28.50;58.50
20672;DHT22;10495;50.922;4.760;2022-08-19T14:10:42;28.50;58.00
20672;DHT22;10495;50.922;4.760;2022-08-19T14:13:12;28.60;57.90
20672;DHT22;10495;50.922;4.760;2022-08-19T14:15:39;28.60;57.80
20672;DHT22;10495;50.922;4.760;2022-08-19T14:18:05;28.60;58.00
20672;DHT22;10495;50.922;4.760;2022-08-19T14:20:30;28.40;58.30
20672;DHT22;10495;50.922;4.760;2022-08-19T14:22:58;28.40;58.40
20672;DHT22;10495;50.922;4.760;2022-08-19T14:25:27;28.40;58.00
20672;DHT22;10495;50.922;4.760;2022-08-19T14:27:53;28.20;57.60
20672;DHT22;10495;50.922;4.760;2022-08-19T14:30:23;28.10;57.80
20672;DHT22;10495;50.922;4.760;2022-08-19T14:32:50;28.20;58.10
20672;DHT22;10495;50.922;4.760;2022-08-19T14:35:16;28.20;57.10
20672;DHT22;10495;50.922;4.760;2022-08-19T14:37:44;28.50;57.30
20672;DHT22;10495;50.922;4.760;2022-08-19T14:40:10;28.50;57.60
20672;DHT22;10495;50.922;4.760;2022-08-19T14:42:37;28.50;57.90
20672;DHT22;10495;50.922;4.760;2022-08-19T14:45:03;28.50;57.50
20672;DHT22;10495;50.922;4.760;2022-08-19T14:47:30;28.60;57.70
20672;DHT22;10495;50.922;4.760;2022-08-19T14:49:56;28.60;57.30
20672;DHT22;10495;50.922;4.760;2022-08-19T14:52:21;28.20;57.50
20672;DHT22;10495;50.922;4.760;2022-08-19T14:54:47;28.20;57.60
20672;DHT22;10495;50.922;4.760;2022-08-19T14:57:14;28.40;57.30
20672;DHT22;10495;50.922;4.760;2022-08-19T14:59:43;28.50;57.00
20672;DHT22;10495;50.922;4.760;2022-08-19T15:02:10;28.50;56.90
20672;DHT22;10495;50.922;4.760;2022-08-19T15:04:35;28.50;56.80
20672;DHT22;10495;50.922;4.760;2022-08-19T15:07:01;28.40;57.10
20672;DHT22;10495;50.922;4.760;2022-08-19T15:09:30;28.40;57.50
20672;DHT22;10495;50.922;4.760;2022-08-19T15:11:56;28.30;57.90
20672;DHT22;10495;50.922;4.760;2022-08-19T15:14:24;28.20;58.00
20672;DHT22;10495;50.922;4.760;2022-08-19T15:16:49;28.00;58.20
20672;DHT22;10495;50.922;4.760;2022-08-19T15:19:15;27.90;58.20
20672;DHT22;10495;50.922;4.760;2022-08-19T15:21:41;27.70;58.40
20672;DHT22;10495;50.922;4.760;2022-08-19T15:24:06;27.50;59.40
20672;DHT22;10495;50.922;4.760;2022-08-19T15:26:32;27.20;61.80
20672;DHT22;10495;50.922;4.760;2022-08-19T15:28:59;26.90;64.70
20672;DHT22;10495;50.922;4.760;2022-08-19T15:31:26;26.70;66.40
20672;DHT22;10495;50.922;4.760;2022-08-19T15:33:53;26.60;67.10
20672;DHT22;10495;50.922;4.760;2022-08-19T15:36:22;26.50;68.70
20672;DHT22;10495;50.922;4.760;2022-08-19T15:38:48;26.60;69.50